Terminal Aerodrome Forecast
Issued by NWS

Home | Current Version | Previous Version | Text Only | Print | Product List | Glossary On
Versions: 1 2 3 4 5 6 7 8 9 10 11
000
FTUS46 KMTR 131127
TAFOAK
TAF
KOAK 131127Z 1312/1418 VRB04KT P6SM FEW250
     FM131900 26005KT P6SM FEW250
     FM132200 30006KT P6SM FEW250
     FM140400 VRB03KT P6SM SKC
     FM141200 VRB02KT P6SM SKC=

USA.gov is the U.S. government's official web portal to all federal, state and local government web resources and services.